Archer, Idaho
Current Conditions -  °F | °C
As of 10:53 AM on Saturday 22 Nov 2014 (Local Time) from KRXE Reporting Station
Overcast Overcast  
Wind Chill: 28°   Ceiling: 1700
Heat Index: 38°   Visibility: 10mi
Dew Point: 34°   Wind: 21mph
Humidity: 86%   Direction: 200°SSW
Pressure: 29.62"   Gusts: 29mph
Location:  43.7568°N, 111.624°W
Report Text: KRXE 221753Z AUTO 20018G25KT 10SM OVC017 03/01 A2962 RMK AO2 SLP035 60006 T00330011 10033 20006 58019
Loading
Personal Weather Stations






























Interactive Weather Map New forecast layout! Learn more

10-Day Weather Forecast

Advertisements
Track Severe Weather on mobile